Time;durP1;ratioP1;P1;durP2;ratioP2;P2;SDS_P1;SDS_P2;PMS_P1;PMS_P2;Temp;Humidity;BMP_temperature;BMP_pressure;BME280_temperature;BME280_humidity;BME280_pressure;Samples;Min_cycle;Max_cycle;Signal;HPM_P1;HPM_P2
2022/05/02 00:02:07;;;;;;;;;;;;;;;;;;4968688;28;19925;-67
2022/05/02 00:04:32;;;;;;;;;;;;;;;;;;4976782;28;20394;-67
2022/05/02 00:06:58;;;;;;;;;;;;;;;;;;4976219;28;19919;-66
2022/05/02 00:09:23;;;;;;;;;;;;;;;;;;4972567;28;19954;-67
2022/05/02 00:11:49;;;;;;;;;;;;;;;;;;4975758;28;19918;-67
2022/05/02 00:14:14;;;;;;;;;;;;;;;;;;4962714;28;20013;-67
2022/05/02 00:16:40;;;;;;;;;;;;;;;;;;4970448;28;20301;-66
2022/05/02 00:19:05;;;;;;;;;;;;;;;;;;4953336;28;19937;-67
2022/05/02 00:21:31;;;;;;;;;;;;;;;;;;4980410;28;19918;-66
2022/05/02 00:23:56;;;;;;;;;;;;;;;;;;4979355;28;19933;-67
2022/05/02 00:26:21;;;;;;;;;;;;;;;;;;4955373;28;19922;-66
2022/05/02 00:28:47;;;;;;;;;;;;;;;;;;4977446;28;19976;-67
2022/05/02 00:31:13;;;;;;;;;;;;;;;;;;4961612;28;19998;-66
2022/05/02 00:33:38;;;;;;;;;;;;;;;;;;4972580;28;20293;-66
2022/05/02 00:36:04;;;;;;;;;;;;;;;;;;4971764;28;19917;-68
2022/05/02 00:38:30;;;;;;;;;;;;;;;;;;4975831;28;20550;-67
2022/05/02 00:40:56;;;;;;;;;;;;;;;;;;4972924;28;19925;-69
2022/05/02 00:43:21;;;;;;;;;;;;;;;;;;4974404;28;20477;-66
2022/05/02 00:45:47;;;;;;;;;;;;;;;;;;4979553;28;19924;-66
2022/05/02 00:48:12;;;;;;;;;;;;;;;;;;4974691;28;19926;-66
2022/05/02 00:50:39;;;;;;;;;;;;;;;;;;4973347;28;19985;-66
2022/05/02 00:53:06;;;;;;;;;;;;;;;;;;4978723;28;19995;-66
2022/05/02 00:55:32;;;;;;;;;;;;;;;;;;4972721;28;20285;-66
2022/05/02 00:57:58;;;;;;;;;;;;;;;;;;4976488;28;20404;-66
2022/05/02 01:00:24;;;;;;;;;;;;;;;;;;4960152;28;19929;-67
2022/05/02 01:02:50;;;;;;;;;;;;;;;;;;4963016;28;19918;-67
2022/05/02 01:05:15;;;;;;;;;;;;;;;;;;4978549;28;19918;-66
2022/05/02 01:07:41;;;;;;;;;;;;;;;;;;4973543;28;19918;-66
2022/05/02 01:10:06;;;;;;;;;;;;;;;;;;4978431;28;19921;-66
2022/05/02 01:12:32;;;;;;;;;;;;;;;;;;4978476;28;19921;-66
2022/05/02 01:14:57;;;;;;;;;;;;;;;;;;4974966;28;20370;-66
2022/05/02 01:17:23;;;;;;;;;;;;;;;;;;4978498;28;19918;-66
2022/05/02 01:19:50;;;;;;;;;;;;;;;;;;4974593;28;19974;-66
2022/05/02 01:22:15;;;;;;;;;;;;;;;;;;4980335;28;19921;-66
2022/05/02 01:24:45;;;;;;;;;;;;;;;;;;4980726;28;19981;-66
2022/05/02 01:27:11;;;;;;;;;;;;;;;;;;4974586;28;19929;-66
2022/05/02 01:29:37;;;;;;;;;;;;;;;;;;4981245;28;19925;-66
2022/05/02 01:32:06;;;;;;;;;;;;;;;;;;4973394;28;19945;-66
2022/05/02 01:34:35;;;;;;;;;;;;;;;;;;4971395;28;20013;-66
2022/05/02 01:37:01;;;;;;;;;;;;;;;;;;4974105;28;19926;-66
2022/05/02 01:39:28;;;;;;;;;;;;;;;;;;4979355;28;19922;-66
2022/05/02 01:41:54;;;;;;;;;;;;;;;;;;4971810;28;20009;-66
2022/05/02 01:44:19;;;;;;;;;;;;;;;;;;4971761;28;20001;-66
2022/05/02 01:46:45;;;;;;;;;;;;;;;;;;4978150;28;19922;-66
2022/05/02 01:49:10;;;;;;;;;;;;;;;;;;4974366;28;20275;-66
2022/05/02 01:51:36;;;;;;;;;;;;;;;;;;4972913;28;19919;-66
2022/05/02 01:54:01;;;;;;;;;;;;;;;;;;4974136;28;20538;-66
2022/05/02 01:56:27;;;;;;;;;;;;;;;;;;4975662;28;19922;-67
2022/05/02 01:58:52;;;;;;;;;;;;;;;;;;4975494;28;19922;-66
2022/05/02 02:01:18;;;;;;;;;;;;;;;;;;4955407;28;19918;-66
2022/05/02 02:03:44;;;;;;;;;;;;;;;;;;4979453;28;20012;-66
2022/05/02 02:06:09;;;;;;;;;;;;;;;;;;4956604;28;19941;-66
2022/05/02 02:08:35;;;;;;;;;;;;;;;;;;4971325;28;20425;-66
2022/05/02 02:11:02;;;;;;;;;;;;;;;;;;4975792;28;20060;-66
2022/05/02 02:13:28;;;;;;;;;;;;;;;;;;4977879;28;19949;-66
2022/05/02 02:15:53;;;;;;;;;;;;;;;;;;4975712;28;20393;-66
2022/05/02 02:18:19;;;;;;;;;;;;;;;;;;4972271;28;20416;-66
2022/05/02 02:20:46;;;;;;;;;;;;;;;;;;4960067;28;20101;-66
2022/05/02 02:23:12;;;;;;;;;;;;;;;;;;4981380;28;19918;-66
2022/05/02 02:25:38;;;;;;;;;;;;;;;;;;4980348;28;19918;-66
2022/05/02 02:28:04;;;;;;;;;;;;;;;;;;4976573;28;19972;-65
2022/05/02 02:30:30;;;;;;;;;;;;;;;;;;4975277;28;19977;-66
2022/05/02 02:32:56;;;;;;;;;;;;;;;;;;4974301;28;19949;-66
2022/05/02 02:35:22;;;;;;;;;;;;;;;;;;4970684;28;20378;-66
2022/05/02 02:37:48;;;;;;;;;;;;;;;;;;4970238;28;19924;-66
2022/05/02 02:40:14;;;;;;;;;;;;;;;;;;4969601;28;19926;-66
2022/05/02 02:42:39;;;;;;;;;;;;;;;;;;4970977;28;19983;-66
2022/05/02 02:45:05;;;;;;;;;;;;;;;;;;4968558;28;19926;-66
2022/05/02 02:47:30;;;;;;;;;;;;;;;;;;4971029;28;19926;-66
2022/05/02 02:49:56;;;;;;;;;;;;;;;;;;4967408;28;19977;-66
2022/05/02 02:52:21;;;;;;;;;;;;;;;;;;4971074;28;19932;-66
2022/05/02 02:54:47;;;;;;;;;;;;;;;;;;4943734;28;20457;-66
2022/05/02 02:57:12;;;;;;;;;;;;;;;;;;4957343;28;19922;-66
2022/05/02 02:59:38;;;;;;;;;;;;;;;;;;4970415;28;20321;-66
2022/05/02 03:02:05;;;;;;;;;;;;;;;;;;4970909;28;19918;-66
2022/05/02 03:07:14;;;;;;;;;;;;;;;;;;4970242;28;20665;-66
2022/05/02 03:09:40;;;;;;;;;;;;;;;;;;4970557;28;19922;-66
2022/05/02 03:12:06;;;;;;;;;;;;;;;;;;4971474;28;19926;-66
2022/05/02 03:14:31;;;;;;;;;;;;;;;;;;4965807;28;19945;-66
2022/05/02 03:16:57;;;;;;;;;;;;;;;;;;4968915;28;19936;-66
2022/05/02 03:19:22;;;;;;;;;;;;;;;;;;4971850;28;19922;-66
2022/05/02 03:21:48;;;;;;;;;;;;;;;;;;4969064;28;19922;-66
2022/05/02 03:24:13;;;;;;;;;;;;;;;;;;4969340;28;20339;-66
2022/05/02 03:26:39;;;;;;;;;;;;;;;;;;4971349;28;19929;-66
2022/05/02 03:29:04;;;;;;;;;;;;;;;;;;4955974;28;19926;-66
2022/05/02 03:31:30;;;;;;;;;;;;;;;;;;4967810;28;19918;-66
2022/05/02 03:33:55;;;;;;;;;;;;;;;;;;4970202;28;19918;-66
2022/05/02 03:36:20;;;;;;;;;;;;;;;;;;4967768;28;19918;-66
2022/05/02 03:38:46;;;;;;;;;;;;;;;;;;4970724;28;20310;-66
2022/05/02 03:41:11;;;;;;;;;;;;;;;;;;4969265;28;19918;-66
2022/05/02 03:43:37;;;;;;;;;;;;;;;;;;4970275;28;19926;-66
2022/05/02 03:46:03;;;;;;;;;;;;;;;;;;4960369;28;19983;-66
2022/05/02 03:48:28;;;;;;;;;;;;;;;;;;4971305;28;20084;-66
2022/05/02 03:50:54;;;;;;;;;;;;;;;;;;4971305;28;19919;-65
2022/05/02 03:53:19;;;;;;;;;;;;;;;;;;4974908;28;19929;-65
2022/05/02 03:55:45;;;;;;;;;;;;;;;;;;4978101;28;19918;-66
2022/05/02 03:58:11;;;;;;;;;;;;;;;;;;4974305;28;19918;-66
2022/05/02 04:00:36;;;;;;;;;;;;;;;;;;4972814;28;20008;-66
2022/05/02 04:03:02;;;;;;;;;;;;;;;;;;4973481;28;20574;-66
2022/05/02 04:05:27;;;;;;;;;;;;;;;;;;4972562;28;19918;-66
2022/05/02 04:07:53;;;;;;;;;;;;;;;;;;4979058;28;19929;-66
2022/05/02 04:10:18;;;;;;;;;;;;;;;;;;4973735;28;19922;-66
2022/05/02 04:12:44;;;;;;;;;;;;;;;;;;4980150;28;19933;-66
2022/05/02 04:15:10;;;;;;;;;;;;;;;;;;4979370;28;20427;-66
2022/05/02 04:17:36;;;;;;;;;;;;;;;;;;4974354;28;19929;-66
2022/05/02 04:20:02;;;;;;;;;;;;;;;;;;4975918;28;19922;-66
2022/05/02 04:22:28;;;;;;;;;;;;;;;;;;4979114;28;19917;-66
2022/05/02 04:24:54;;;;;;;;;;;;;;;;;;4986698;28;19926;-66
2022/05/02 04:27:19;;;;;;;;;;;;;;;;;;4977111;28;20273;-66
2022/05/02 04:29:45;;;;;;;;;;;;;;;;;;4974073;28;20021;-66
2022/05/02 04:32:10;;;;;;;;;;;;;;;;;;4978984;28;19925;-66
2022/05/02 04:34:36;;;;;;;;;;;;;;;;;;4973840;28;19925;-66
2022/05/02 04:37:01;;;;;;;;;;;;;;;;;;4974776;28;19918;-66
2022/05/02 04:39:27;;;;;;;;;;;;;;;;;;4981761;28;20386;-66
2022/05/02 04:41:52;;;;;;;;;;;;;;;;;;4972493;28;19933;-66
2022/05/02 04:44:18;;;;;;;;;;;;;;;;;;4970950;28;19928;-66
2022/05/02 04:46:43;;;;;;;;;;;;;;;;;;4970405;28;20042;-66
2022/05/02 04:49:09;;;;;;;;;;;;;;;;;;4974158;28;19922;-66
2022/05/02 04:51:34;;;;;;;;;;;;;;;;;;4978323;28;20316;-66
2022/05/02 04:54:00;;;;;;;;;;;;;;;;;;4978717;28;19925;-66
2022/05/02 04:56:25;;;;;;;;;;;;;;;;;;4977488;28;19924;-66
2022/05/02 04:58:51;;;;;;;;;;;;;;;;;;4972651;28;20301;-66
2022/05/02 05:01:17;;;;;;;;;;;;;;;;;;4977694;28;19973;-66
2022/05/02 05:03:42;;;;;;;;;;;;;;;;;;4976612;28;19918;-66
2022/05/02 05:06:08;;;;;;;;;;;;;;;;;;4973030;28;19917;-66
2022/05/02 05:08:33;;;;;;;;;;;;;;;;;;4972410;28;20004;-66
2022/05/02 05:11:05;;;;;;;;;;;;;;;;;;4971556;28;19989;-66
2022/05/02 05:13:38;;;;;;;;;;;;;;;;;;4985422;28;20306;-66
2022/05/02 05:16:22;;;;;;;;;;;;;;;;;;4970304;28;20017;-66
2022/05/02 05:18:54;;;;;;;;;;;;;;;;;;4960764;28;19925;-66
2022/05/02 05:21:20;;;;;;;;;;;;;;;;;;4960458;28;19918;-67
2022/05/02 05:23:48;;;;;;;;;;;;;;;;;;4978905;28;20450;-67
2022/05/02 05:26:29;;;;;;;;;;;;;;;;;;4979958;28;19962;-66
2022/05/02 05:29:13;;;;;;;;;;;;;;;;;;4982680;28;19928;-66
2022/05/02 05:31:42;;;;;;;;;;;;;;;;;;4973968;28;20389;-66
2022/05/02 05:34:16;;;;;;;;;;;;;;;;;;4966645;28;19988;-66
2022/05/02 05:36:48;;;;;;;;;;;;;;;;;;4976354;28;19929;-67
2022/05/02 05:39:32;;;;;;;;;;;;;;;;;;4978078;28;19981;-66
2022/05/02 05:42:00;;;;;;;;;;;;;;;;;;4975089;28;19925;-66
2022/05/02 05:44:32;;;;;;;;;;;;;;;;;;4976022;28;19921;-66
2022/05/02 05:47:16;;;;;;;;;;;;;;;;;;4976918;28;20370;-66
2022/05/02 05:49:53;;;;;;;;;;;;;;;;;;4970243;28;19922;-66
2022/05/02 05:52:31;;;;;;;;;;;;;;;;;;4975464;28;19926;-66
2022/05/02 05:55:00;;;;;;;;;;;;;;;;;;4980080;28;20328;-67
2022/05/02 05:57:25;;;;;;;;;;;;;;;;;;4949509;28;19918;-67
2022/05/02 06:00:18;;;;;;;;;;;;;;;;;;4973075;28;19987;-66
2022/05/02 06:02:50;;;;;;;;;;;;;;;;;;4971521;28;19918;-66
2022/05/02 06:05:16;;;;;;;;;;;;;;;;;;4973332;28;19934;-66
2022/05/02 06:07:42;;;;;;;;;;;;;;;;;;4970652;28;19961;-66
2022/05/02 06:10:09;;;;;;;;;;;;;;;;;;4966667;28;19926;-67
2022/05/02 06:12:35;;;;;;;;;;;;;;;;;;4967496;28;20321;-67
2022/05/02 06:20:33;;;;;;;;;;;;;;;;;;4970645;28;20020;-67
2022/05/02 06:22:59;;;;;;;;;;;;;;;;;;4970659;28;19994;-67
2022/05/02 06:25:28;;;;;;;;;;;;;;;;;;4970649;28;19922;-67
2022/05/02 06:27:55;;;;;;;;;;;;;;;;;;4970744;28;20330;-67
2022/05/02 06:30:22;;;;;;;;;;;;;;;;;;4971151;28;20618;-67
2022/05/02 06:32:48;;;;;;;;;;;;;;;;;;4969106;28;19918;-67
2022/05/02 06:35:15;;;;;;;;;;;;;;;;;;4958814;28;19940;-67
2022/05/02 06:37:45;;;;;;;;;;;;;;;;;;4967217;28;20296;-67
2022/05/02 06:40:14;;;;;;;;;;;;;;;;;;4972682;28;19922;-67
2022/05/02 06:42:59;;;;;;;;;;;;;;;;;;4968985;28;20608;-67
2022/05/02 06:45:24;;;;;;;;;;;;;;;;;;4968982;28;19922;-66
2022/05/02 06:48:07;;;;;;;;;;;;;;;;;;4970969;28;19918;-65
2022/05/02 06:50:36;;;;;;;;;;;;;;;;;;4974802;28;19937;-65
2022/05/02 06:53:01;;;;;;;;;;;;;;;;;;4972200;28;20282;-67
2022/05/02 06:55:27;;;;;;;;;;;;;;;;;;4972096;28;19922;-67
2022/05/02 06:57:57;;;;;;;;;;;;;;;;;;4968348;28;19922;-67
2022/05/02 07:00:23;;;;;;;;;;;;;;;;;;4972385;28;19933;-66
2022/05/02 07:02:49;;;;;;;;;;;;;;;;;;4968905;28;20525;-67
2022/05/02 07:05:17;;;;;;;;;;;;;;;;;;4953418;28;19924;-66
2022/05/02 07:08:03;;;;;;;;;;;;;;;;;;4970692;28;20012;-66
2022/05/02 07:10:48;;;;;;;;;;;;;;;;;;4956635;28;20418;-67
2022/05/02 07:13:15;;;;;;;;;;;;;;;;;;4978635;28;20325;-67
2022/05/02 07:15:41;;;;;;;;;;;;;;;;;;4970133;28;19918;-66
2022/05/02 07:18:08;;;;;;;;;;;;;;;;;;4970097;28;19918;-66
2022/05/02 07:20:39;;;;;;;;;;;;;;;;;;4980942;28;20463;-66
2022/05/02 07:23:16;;;;;;;;;;;;;;;;;;4977872;28;19960;-67
2022/05/02 07:25:43;;;;;;;;;;;;;;;;;;4979260;28;20421;-66
2022/05/02 07:28:15;;;;;;;;;;;;;;;;;;4972542;28;19918;-66
2022/05/02 07:30:40;;;;;;;;;;;;;;;;;;4970496;28;19937;-66
2022/05/02 07:33:07;;;;;;;;;;;;;;;;;;4973127;28;19937;-67
2022/05/02 07:35:34;;;;;;;;;;;;;;;;;;4972466;28;20321;-67
2022/05/02 07:38:01;;;;;;;;;;;;;;;;;;4972250;28;20363;-65
2022/05/02 07:40:27;;;;;;;;;;;;;;;;;;4978498;28;19918;-65
2022/05/02 07:42:54;;;;;;;;;;;;;;;;;;4973524;28;20118;-66
2022/05/02 07:45:21;;;;;;;;;;;;;;;;;;4977923;28;19918;-66
2022/05/02 07:47:50;;;;;;;;;;;;;;;;;;4971158;28;19953;-65
2022/05/02 07:50:17;;;;;;;;;;;;;;;;;;4973026;28;19930;-66
2022/05/02 07:52:43;;;;;;;;;;;;;;;;;;4974939;28;19976;-65
2022/05/02 07:55:10;;;;;;;;;;;;;;;;;;4979442;28;20021;-67
2022/05/02 07:57:38;;;;;;;;;;;;;;;;;;4967517;28;19996;-66
2022/05/02 08:00:04;;;;;;;;;;;;;;;;;;4958733;28;19922;-65
2022/05/02 08:02:37;;;;;;;;;;;;;;;;;;4973336;28;19922;-65
2022/05/02 08:05:03;;;;;;;;;;;;;;;;;;4971544;28;19949;-66
2022/05/02 08:07:41;;;;;;;;;;;;;;;;;;4982111;28;19972;-66
2022/05/02 08:10:21;;;;;;;;;;;;;;;;;;4969293;28;20020;-66
2022/05/02 08:12:47;;;;;;;;;;;;;;;;;;4966978;28;19921;-64
2022/05/02 08:15:12;;;;;;;;;;;;;;;;;;4969418;28;19985;-65
2022/05/02 08:17:57;;;;;;;;;;;;;;;;;;4960311;28;19946;-65
2022/05/02 08:20:26;;;;;;;;;;;;;;;;;;4971507;28;19953;-66
2022/05/02 08:28:54;;;;;;;;;;;;;;;;;;4973756;28;19977;-67
2022/05/02 08:31:24;;;;;;;;;;;;;;;;;;4976077;28;19965;-67
2022/05/02 08:34:02;;;;;;;;;;;;;;;;;;4970963;28;19924;-66
2022/05/02 08:37:03;;;;;;;;;;;;;;;;;;4968937;28;19929;-66
2022/05/02 08:39:34;;;;;;;;;;;;;;;;;;4895863;29;19929;-66
2022/05/02 08:42:23;;;;;;;;;;;;;;;;;;4960162;28;19926;-66
2022/05/02 08:44:48;;;;;;;;;;;;;;;;;;4968269;28;19941;-65
2022/05/02 08:47:20;;;;;;;;;;;;;;;;;;4974722;28;19925;-67
2022/05/02 08:50:01;;;;;;;;;;;;;;;;;;4976931;28;20498;-67
2022/05/02 08:52:47;;;;;;;;;;;;;;;;;;4976516;28;20298;-67
2022/05/02 08:55:12;;;;;;;;;;;;;;;;;;4972475;28;19922;-66
2022/05/02 08:57:44;;;;;;;;;;;;;;;;;;4974891;28;19918;-67
2022/05/02 09:00:16;;;;;;;;;;;;;;;;;;4979780;28;19925;-66
2022/05/02 09:02:56;;;;;;;;;;;;;;;;;;4972523;28;19926;-67
2022/05/02 09:05:41;;;;;;;;;;;;;;;;;;4971672;28;19918;-66
2022/05/02 09:08:13;;;;;;;;;;;;;;;;;;4973858;28;20366;-67
2022/05/02 09:10:41;;;;;;;;;;;;;;;;;;4983677;28;19945;-67
2022/05/02 09:13:26;;;;;;;;;;;;;;;;;;4981432;28;19926;-66
2022/05/02 09:16:03;;;;;;;;;;;;;;;;;;4976885;28;19973;-65
2022/05/02 09:18:48;;;;;;;;;;;;;;;;;;4978001;28;20064;-66
2022/05/02 09:21:16;;;;;;;;;;;;;;;;;;4977821;28;20050;-66
2022/05/02 09:24:00;;;;;;;;;;;;;;;;;;4977819;28;19918;-67
2022/05/02 09:26:26;;;;;;;;;;;;;;;;;;4981699;28;19925;-67
2022/05/02 09:28:57;;;;;;;;;;;;;;;;;;4976794;28;19923;-66
2022/05/02 09:31:26;;;;;;;;;;;;;;;;;;4972927;28;19918;-67
2022/05/02 09:34:00;;;;;;;;;;;;;;;;;;4974593;28;19922;-66
2022/05/02 09:36:30;;;;;;;;;;;;;;;;;;4975677;28;19918;-67
2022/05/02 09:39:01;;;;;;;;;;;;;;;;;;4976324;28;19929;-66
2022/05/02 09:41:35;;;;;;;;;;;;;;;;;;4975089;28;19921;-67
2022/05/02 09:50:04;;;;;;;;;;;;;;;;;;4960380;28;19944;-66
2022/05/02 09:52:33;;;;;;;;;;;;;;;;;;4961566;28;19917;-67
2022/05/02 09:57:58;;;;;;;;;;;;;;;;;;4974009;28;19926;-66
2022/05/02 10:03:24;;;;;;;;;;;;;;;;;;4959566;28;19918;-66
2022/05/02 10:06:09;;;;;;;;;;;;;;;;;;4977135;28;19961;-67
2022/05/02 10:08:43;;;;;;;;;;;;;;;;;;4969848;28;19918;-67
2022/05/02 10:11:14;;;;;;;;;;;;;;;;;;4959718;28;19926;-68
2022/05/02 10:13:52;;;;;;;;;;;;;;;;;;4974384;28;19918;-69
2022/05/02 10:16:18;;;;;;;;;;;;;;;;;;4982243;28;20016;-68
2022/05/02 10:18:47;;;;;;;;;;;;;;;;;;4963060;28;20346;-68
2022/05/02 10:21:18;;;;;;;;;;;;;;;;;;4960840;28;19917;-68
2022/05/02 10:23:56;;;;;;;;;;;;;;;;;;4981194;28;19976;-67
2022/05/02 10:26:40;;;;;;;;;;;;;;;;;;4972043;28;19969;-70
2022/05/02 10:29:12;;;;;;;;;;;;;;;;;;4975507;28;19922;-68
2022/05/02 10:31:38;;;;;;;;;;;;;;;;;;4974390;28;19918;-68
2022/05/02 10:34:04;;;;;;;;;;;;;;;;;;4970877;28;20021;-68
2022/05/02 10:36:36;;;;;;;;;;;;;;;;;;4974576;28;20013;-69
2022/05/02 10:39:09;;;;;;;;;;;;;;;;;;4979598;28;20330;-68
2022/05/02 10:41:56;;;;;;;;;;;;;;;;;;4971043;28;19922;-68
2022/05/02 10:44:24;;;;;;;;;;;;;;;;;;4970706;28;19921;-67
2022/05/02 10:46:51;;;;;;;;;;;;;;;;;;4956746;28;20362;-68
2022/05/02 10:49:26;;;;;;;;;;;;;;;;;;4970888;28;20680;-70
2022/05/02 10:52:01;;;;;;;;;;;;;;;;;;4982490;28;19924;-69
2022/05/02 10:54:30;;;;;;;;;;;;;;;;;;4984381;28;19925;-68
2022/05/02 10:56:58;;;;;;;;;;;;;;;;;;4971211;28;19953;-69
2022/05/02 10:59:28;;;;;;;;;;;;;;;;;;4977227;28;19926;-68
2022/05/02 11:01:59;;;;;;;;;;;;;;;;;;4967325;28;20399;-69
2022/05/02 11:04:44;;;;;;;;;;;;;;;;;;4975050;28;20008;-69
2022/05/02 11:07:24;;;;;;;;;;;;;;;;;;4982352;28;19925;-68
2022/05/02 11:09:59;;;;;;;;;;;;;;;;;;4978010;28;20016;-70
2022/05/02 11:12:29;;;;;;;;;;;;;;;;;;4974507;28;19926;-69
2022/05/02 11:14:58;;;;;;;;;;;;;;;;;;4975250;28;19929;-69
2022/05/02 11:17:27;;;;;;;;;;;;;;;;;;4975979;28;19977;-68
2022/05/02 11:22:54;;;;;;;;;;;;;;;;;;4960113;28;20410;-67
2022/05/02 11:25:20;;;;;;;;;;;;;;;;;;4982020;28;19925;-68
2022/05/02 11:28:12;;;;;;;;;;;;;;;;;;4978812;28;19922;-68
2022/05/02 11:30:48;;;;;;;;;;;;;;;;;;4970127;28;19922;-68
2022/05/02 11:33:22;;;;;;;;;;;;;;;;;;4978078;28;19924;-67
2022/05/02 11:35:49;;;;;;;;;;;;;;;;;;4973159;28;20309;-68
2022/05/02 11:38:21;;;;;;;;;;;;;;;;;;4977500;28;19948;-67
2022/05/02 11:40:47;;;;;;;;;;;;;;;;;;4974683;28;19918;-66
2022/05/02 11:43:22;;;;;;;;;;;;;;;;;;4981077;28;19925;-67
2022/05/02 11:45:50;;;;;;;;;;;;;;;;;;4970444;28;19918;-68
2022/05/02 11:48:35;;;;;;;;;;;;;;;;;;4977376;28;19993;-67
2022/05/02 11:51:03;;;;;;;;;;;;;;;;;;4974118;28;19936;-67
2022/05/02 11:53:32;;;;;;;;;;;;;;;;;;4977211;28;19922;-67
2022/05/02 11:56:01;;;;;;;;;;;;;;;;;;4972847;28;20397;-69
2022/05/02 11:58:34;;;;;;;;;;;;;;;;;;4974411;28;20344;-68
2022/05/02 12:01:03;;;;;;;;;;;;;;;;;;4975122;28;19956;-67
2022/05/02 12:03:43;;;;;;;;;;;;;;;;;;4980265;28;19972;-67
2022/05/02 12:06:09;;;;;;;;;;;;;;;;;;4976680;28;20435;-69
2022/05/02 12:08:35;;;;;;;;;;;;;;;;;;4985096;28;20512;-69
2022/05/02 12:11:09;;;;;;;;;;;;;;;;;;4971694;28;20402;-69
2022/05/02 12:13:35;;;;;;;;;;;;;;;;;;4976774;28;19922;-69
2022/05/02 12:21:46;;;;;;;4.40;4.00;;;;;;;;;;5056972;28;20382;-65
2022/05/02 12:25:23;;;;;;;5.57;5.18;;;;;;;;;;5071254;27;20399;-62
2022/05/02 12:27:50;;;;;;;5.97;5.40;;;;;;;;;;5066853;28;20392;-62
2022/05/02 12:30:17;;;;;;;5.68;5.18;;;;;;;;;;5022279;28;20037;-62
2022/05/02 12:32:45;;;;;;;5.93;5.25;;;;;;;;;;5027796;28;20058;-62
2022/05/02 12:35:12;;;;;;;5.50;5.10;;;;;;;;;;5028660;28;20030;-62
2022/05/02 12:37:42;;;;;;;5.55;5.05;;;;;;;;;;5025176;28;20135;-62
2022/05/02 12:40:12;;;;;;;5.72;5.00;;;;;;;;;;5029963;28;20657;-62
2022/05/02 12:42:47;;;;;;;5.00;4.60;;;;;;;;;;5027491;28;20044;-62
2022/05/02 12:45:16;;;;;;;5.25;4.75;;;;;;;;;;5026370;28;20495;-62
2022/05/02 12:47:48;;;;;;;5.25;4.75;;;;;;;;;;5027812;28;20557;-62
2022/05/02 12:50:17;;;;;;;4.90;4.50;;;;;;;;;;5032491;28;20069;-62
2022/05/02 12:52:48;;;;;;;5.35;4.82;;;;;;;;;;5028882;28;20045;-62
2022/05/02 12:55:14;;;;;;;5.03;4.57;;;;;;;;;;5026065;28;20112;-62
2022/05/02 13:00:48;;;;;;;5.20;4.80;;;;;;;;;;5025491;28;20041;-62
2022/05/02 13:03:18;;;;;;;5.72;5.13;;;;;;;;;;5029789;28;20037;-62
2022/05/02 13:05:59;;;;;;;5.53;5.03;;;;;;;;;;5029668;28;20405;-63
2022/05/02 13:08:38;;;;;;;5.25;4.82;;;;;;;;;;5027169;28;20037;-62
2022/05/02 13:11:20;;;;;;;5.15;4.75;;;;;;;;;;5025490;28;20057;-62
2022/05/02 13:13:49;;;;;;;4.97;4.30;;;;;;;;;;5029971;28;20029;-62
2022/05/02 13:16:23;;;;;;;5.22;4.82;;;;;;;;;;5024205;28;20103;-60
2022/05/02 13:18:49;;;;;;;5.88;4.55;;;;;;;;;;5014475;28;20041;-62
2022/05/02 13:21:17;;;;;;;4.90;4.50;;;;;;;;;;5020994;28;20041;-61
2022/05/02 13:23:44;;;;;;;5.03;4.60;;;;;;;;;;5014913;28;20052;-62
2022/05/02 13:26:32;;;;;;;5.22;4.78;;;;;;;;;;5023303;28;20042;-62
2022/05/02 13:29:20;;;;;;;4.65;4.35;;;;;;;;;;5031580;28;20504;-62
2022/05/02 13:31:54;;;;;;;6.97;4.25;;;;;;;;;;5022428;28;20033;-61
2022/05/02 13:34:31;;;;;;;4.72;4.30;;;;;;;;;;5017906;28;20400;-62
2022/05/02 13:37:03;;;;;;;4.63;4.22;;;;;;;;;;5018673;28;20048;-61
2022/05/02 13:39:53;;;;;;;5.13;4.60;;;;;;;;;;5011875;28;21513;-62
2022/05/02 13:42:21;;;;;;;6.03;5.00;;;;;;;;;;5015698;28;20561;-60
2022/05/02 13:44:53;;;;;;;5.15;4.75;;;;;;;;;;5017771;28;20567;-61
2022/05/02 13:47:22;;;;;;;4.60;4.20;;;;;;;;;;5015406;28;20038;-61
2022/05/02 13:50:08;;;;;;;5.10;4.53;;;;;;;;;;5017988;28;20729;-62
2022/05/02 13:52:42;;;;;;;4.18;3.85;;;;;;;;;;5010076;28;20038;-62
2022/05/02 13:55:30;;;;;;;4.60;4.25;;;;;;;;;;5009534;28;20033;-61
2022/05/02 13:58:11;;;;;;;6.18;5.47;;;;;;;;;;5012905;28;20022;-72
2022/05/02 14:03:57;;;;;;;12.75;11.85;;;;;;;;;;5012538;28;20030;-61
2022/05/02 14:06:29;;;;;;;13.10;12.13;;;;;;;;;;5016376;28;20034;-61
2022/05/02 14:08:54;;;;;;;13.10;12.20;;;;;;;;;;5010324;28;20037;-61
2022/05/02 14:11:20;;;;;;;12.75;11.85;;;;;;;;;;5012693;28;20050;-61
2022/05/02 14:13:48;;;;;;;12.65;11.85;;;;;;;;;;5015919;28;20137;-61
2022/05/02 14:16:16;;;;;;;13.30;12.40;;;;;;;;;;5014011;28;20134;-62
2022/05/02 14:18:51;;;;;;;13.13;12.32;;;;;;;;;;5012405;28;20034;-62
2022/05/02 14:21:21;;;;;;;13.77;12.88;;;;;;;;;;5007181;28;20404;-61
2022/05/02 14:23:53;;;;;;;13.85;12.95;;;;;;;;;;5004518;28;20128;-59
2022/05/02 14:26:21;;;;;;;13.55;12.65;;;;;;;;;;5011856;28;20056;-60
2022/05/02 14:28:48;;;;;;;13.40;12.57;;;;;;;;;;5007447;28;20592;-59
2022/05/02 14:31:14;;;;;;;13.45;12.55;;;;;;;;;;5015407;28;20041;-62
2022/05/02 14:33:40;;;;;;;12.95;12.15;;;;;;;;;;5012641;28;20038;-61
2022/05/02 14:36:08;;;;;;;13.75;12.85;;;;;;;;;;4998298;28;20049;-61
2022/05/02 14:38:37;;;;;;;14.20;13.20;;;;;;;;;;5012753;28;20041;-59
2022/05/02 14:41:03;;;;;;;;;;;;;;;;;;4996557;28;21474;-60
2022/05/02 14:43:29;;;;;;;14.60;13.48;;;;;;;;;;5005581;28;19913;-59
2022/05/02 14:45:55;;;;;;;14.65;13.65;;;;;;;;;;4995617;28;20034;-60
2022/05/02 14:48:23;;;;;;;13.65;12.75;;;;;;;;;;5008883;28;20025;-60
2022/05/02 14:50:53;;;;;;;14.10;13.20;;;;;;;;;;5005819;28;20048;-60
2022/05/02 14:53:21;;;;;;;13.68;12.77;;;;;;;;;;5003610;28;20108;-61
2022/05/02 14:55:57;;;;;;;13.90;12.93;;;;;;;;;;5005905;28;20041;-61
2022/05/02 14:58:28;;;;;;;13.60;12.70;;;;;;;;;;5005834;28;20041;-62
2022/05/02 15:01:02;;;;;;;13.48;12.57;;;;;;;;;;5006106;28;20064;-60
2022/05/02 15:03:30;;;;;;;13.40;12.50;;;;;;;;;;5004239;28;20046;-61
2022/05/02 15:06:03;;;;;;;13.43;12.52;;;;;;;;;;5005391;28;20042;-60
2022/05/02 15:08:43;;;;;;;13.20;12.40;;;;;;;;;;5005576;28;20373;-61
2022/05/02 15:11:29;;;;;;;13.35;12.20;;;;;;;;;;5006909;28;20049;-61
2022/05/02 15:14:27;;;;;;;12.75;12.02;;;;;;;;;;5003800;28;20032;-61
2022/05/02 15:17:25;;;;;;;13.80;12.80;;;;;;;;;;5004483;28;20038;-61
2022/05/02 15:20:08;;;;;;;13.60;12.80;;;;;;;;;;5008024;28;20039;-60
2022/05/02 15:22:40;;;;;;;13.48;12.57;;;;;;;;;;5002802;28;20492;-61
2022/05/02 15:25:09;;;;;;;13.55;12.52;;;;;;;;;;5006154;28;20472;-61
2022/05/02 15:36:40;;;;;;;13.10;12.30;;;;;;;;;;5004924;28;20037;-58
2022/05/02 15:39:06;;;;;;;13.77;12.88;;;;;;;;;;5008285;28;20037;-61
2022/05/02 15:41:43;;;;;;;13.10;12.30;;;;;;;;;;5008113;28;20068;-59
2022/05/02 15:44:10;;;;;;;13.45;12.35;;;;;;;;;;4990144;28;20092;-59
2022/05/02 15:46:40;;;;;;;13.55;12.65;;;;;;;;;;5005977;28;20044;-59
2022/05/02 15:49:07;;;;;;;13.50;12.60;;;;;;;;;;5005415;28;20081;-60
2022/05/02 15:51:42;;;;;;;12.48;11.65;;;;;;;;;;5004749;28;20065;-58
2022/05/02 15:54:28;;;;;;;13.18;12.30;;;;;;;;;;5006222;28;20030;-61
2022/05/02 15:57:00;;;;;;;13.25;12.13;;;;;;;;;;5001418;28;20042;-59
2022/05/02 15:59:48;;;;;;;13.77;12.70;;;;;;;;;;5006034;28;20060;-59
2022/05/02 16:02:20;;;;;;;13.13;12.32;;;;;;;;;;5007518;28;20049;-60
2022/05/02 16:04:51;;;;;;;13.52;12.60;;;;;;;;;;5005179;28;20034;-59
2022/05/02 16:12:50;;;;;;;12.80;12.00;;;;;;;;;;5010472;28;20065;-59
2022/05/02 16:15:17;;;;;;;13.27;12.10;;;;;;;;;;4995465;28;20425;-60
2022/05/02 16:17:48;;;;;;;12.82;12.02;;;;;;;;;;5004494;28;20654;-59
2022/05/02 16:20:15;;;;;;;13.52;12.63;;;;;;;;;;5003530;28;20523;-60
2022/05/02 16:22:41;;;;;;;13.70;12.80;;;;;;;;;;5000073;28;20034;-61
2022/05/02 16:25:13;;;;;;;13.85;12.82;;;;;;;;;;5002285;28;20029;-60
2022/05/02 16:27:41;;;;;;;13.38;12.48;;;;;;;;;;4996260;28;20104;-60
2022/05/02 16:30:08;;;;;;;13.57;12.70;;;;;;;;;;5005279;28;20121;-59
2022/05/02 16:32:42;;;;;;;13.57;12.57;;;;;;;;;;4998017;28;20053;-57
2022/05/02 16:35:20;;;;;;;13.65;12.75;;;;;;;;;;5006032;28;20034;-61
2022/05/02 16:37:47;;;;;;;13.93;12.82;;;;;;;;;;4994553;28;20810;-59
2022/05/02 16:40:16;;;;;;;12.80;11.90;;;;;;;;;;5008918;28;20609;-60
2022/05/02 16:42:43;;;;;;;13.40;12.40;;;;;;;;;;4994408;28;20049;-62
2022/05/02 16:45:13;;;;;;;13.73;12.82;;;;;;;;;;5000488;28;20413;-61
2022/05/02 16:47:39;;;;;;;13.18;12.27;;;;;;;;;;5000522;28;20042;-62
2022/05/02 16:50:10;;;;;;;13.77;12.73;;;;;;;;;;4999031;28;20084;-61
2022/05/02 16:52:37;;;;;;;13.77;12.88;;;;;;;;;;5007148;23;20038;-70
2022/05/02 16:55:05;;;;;;;13.90;13.10;;;;;;;;;;5004800;28;20383;-69
2022/05/02 16:57:41;;;;;;;13.70;12.70;;;;;;;;;;5006043;28;20040;-68
2022/05/02 17:00:31;;;;;;;13.85;12.85;;;;;;;;;;5005697;28;20390;-70
2022/05/02 17:02:58;;;;;;;13.95;12.95;;;;;;;;;;5002705;28;20049;-70
2022/05/02 17:05:30;;;;;;;13.68;12.77;;;;;;;;;;5004925;28;20041;-71
2022/05/02 17:07:57;;;;;;;13.65;12.75;;;;;;;;;;5005016;28;20044;-71
2022/05/02 17:10:23;;;;;;;13.40;12.60;;;;;;;;;;5006132;28;20398;-71
2022/05/02 17:12:49;;;;;;;13.27;12.48;;;;;;;;;;5007966;28;20109;-69
2022/05/02 17:15:15;;;;;;;13.50;12.60;;;;;;;;;;5008385;28;20430;-71
2022/05/02 17:17:44;;;;;;;13.57;12.68;;;;;;;;;;5006182;28;20088;-69